createdAt,value
2018-03-08T00:00:19.607Z,1.80
2018-03-08T00:02:47.818Z,1.90
2018-03-08T00:05:15.324Z,3.62
2018-03-08T00:07:42.814Z,4.60
2018-03-08T00:10:10.243Z,5.20
2018-03-08T00:12:38.450Z,2.40
2018-03-08T00:15:06.680Z,2.10
2018-03-08T00:17:34.176Z,2.50
2018-03-08T00:20:01.608Z,2.00
2018-03-08T00:22:29.048Z,2.12
2018-03-08T00:24:57.251Z,2.30
2018-03-08T00:27:24.696Z,2.20
2018-03-08T00:29:52.140Z,2.00
2018-03-08T00:32:19.577Z,2.50
2018-03-08T00:34:47.017Z,2.35
2018-03-08T00:37:14.500Z,2.30
2018-03-08T00:39:41.927Z,2.60
2018-03-08T00:42:09.396Z,2.60
2018-03-08T00:44:36.818Z,2.70
2018-03-08T00:47:05.020Z,2.80
2018-03-08T00:49:32.452Z,2.70
2018-03-08T00:51:59.913Z,2.80
2018-03-08T00:54:27.350Z,3.00
2018-03-08T00:56:55.608Z,3.12
2018-03-08T00:59:23.032Z,3.20
2018-03-08T01:01:51.244Z,3.40
2018-03-08T01:04:18.699Z,3.40
2018-03-08T01:06:46.944Z,3.47
2018-03-08T01:09:15.103Z,3.50
2018-03-08T01:11:43.319Z,3.70
2018-03-08T01:14:10.751Z,3.67
2018-03-08T01:16:38.195Z,4.00
2018-03-08T01:19:05.634Z,4.00
2018-03-08T01:21:33.070Z,4.30
2018-03-08T01:24:00.507Z,3.92
2018-03-08T01:26:28.717Z,4.22
2018-03-08T01:28:56.156Z,4.30
2018-03-08T01:31:23.583Z,4.62
2018-03-08T01:33:51.041Z,4.60
2018-03-08T01:36:27.247Z,4.00
2018-03-08T01:38:54.685Z,4.05
2018-03-08T01:41:22.124Z,4.10
2018-03-08T01:43:49.562Z,4.50
2018-03-08T01:46:17.001Z,4.45
2018-03-08T01:48:44.440Z,4.40
2018-03-08T01:51:12.648Z,4.20
2018-03-08T01:53:40.843Z,4.90
2018-03-08T01:56:09.040Z,4.13
2018-03-08T01:58:36.479Z,4.45
2018-03-08T02:01:03.928Z,4.60
2018-03-08T02:03:31.368Z,4.80
2018-03-08T02:05:59.572Z,4.67
2018-03-08T02:08:27.772Z,4.07
2018-03-08T02:10:55.967Z,4.45
2018-03-08T02:13:24.173Z,4.40
2018-03-08T02:15:52.368Z,4.18
2018-03-08T02:18:20.579Z,3.62
2018-03-08T02:20:48.021Z,3.95
2018-03-08T02:23:15.462Z,3.80
2018-03-08T02:25:42.898Z,4.10
2018-03-08T02:28:11.106Z,4.20
2018-03-08T02:30:39.304Z,4.20
2018-03-08T02:33:07.517Z,4.65
2018-03-08T02:35:34.959Z,3.60
2018-03-08T02:38:02.398Z,4.47
2018-03-08T02:40:29.825Z,4.13
2018-03-08T02:42:57.278Z,4.15
2018-03-08T02:45:24.709Z,4.00
2018-03-08T02:47:52.908Z,4.10
2018-03-08T02:50:21.104Z,4.20
2018-03-08T02:52:49.325Z,4.20
2018-03-08T02:55:16.755Z,4.13
2018-03-08T02:57:44.199Z,4.10
2018-03-08T03:00:11.640Z,3.90
2018-03-08T03:02:39.849Z,4.15
2018-03-08T03:05:08.048Z,4.70
2018-03-08T03:07:35.489Z,4.17
2018-03-08T03:10:04.428Z,4.30
2018-03-08T03:12:32.628Z,4.10
2018-03-08T03:15:00.844Z,4.30
2018-03-08T03:17:28.308Z,4.05
2018-03-08T03:19:56.499Z,4.07
2018-03-08T03:22:24.713Z,4.15
2018-03-08T03:24:52.920Z,4.10
2018-03-08T03:27:20.428Z,4.10
2018-03-08T03:29:47.876Z,4.20
2018-03-08T03:32:16.092Z,4.07
2018-03-08T03:34:43.531Z,3.60
2018-03-08T03:37:10.963Z,3.50
2018-03-08T03:39:38.423Z,3.83
2018-03-08T03:42:06.625Z,4.00
2018-03-08T03:44:34.068Z,3.87
2018-03-08T03:47:01.500Z,4.00
2018-03-08T03:49:28.955Z,4.00
2018-03-08T03:51:57.165Z,3.40
2018-03-08T03:54:24.621Z,3.10
2018-03-08T03:56:52.871Z,3.93
2018-03-08T03:59:20.315Z,3.30
2018-03-08T04:01:48.516Z,3.45
2018-03-08T04:04:16.736Z,3.15
2018-03-08T04:06:44.176Z,3.85
2018-03-08T04:09:11.625Z,3.40
2018-03-08T04:11:39.079Z,3.60
2018-03-08T04:14:06.520Z,3.10
2018-03-08T04:16:33.956Z,3.33
2018-03-08T04:19:01.393Z,3.47
2018-03-08T04:21:29.593Z,3.20
2018-03-08T04:23:57.796Z,3.50
2018-03-08T04:26:25.241Z,3.00
2018-03-08T04:28:52.692Z,3.30
2018-03-08T04:31:20.128Z,3.57
2018-03-08T04:33:48.332Z,3.90
2018-03-08T04:36:16.580Z,4.15
2018-03-08T04:38:44.060Z,3.90
2018-03-08T04:41:11.491Z,4.25
2018-03-08T04:43:39.710Z,4.50
2018-03-08T04:46:07.156Z,4.22
2018-03-08T04:48:34.608Z,4.85
2018-03-08T04:51:02.046Z,4.78
2018-03-08T04:53:29.496Z,4.77
2018-03-08T04:55:56.942Z,5.07
2018-03-08T04:58:24.387Z,5.30
2018-03-08T05:00:51.828Z,5.07
2018-03-08T05:03:19.278Z,4.72
2018-03-08T05:05:46.711Z,4.40
2018-03-08T05:08:14.917Z,4.95
2018-03-08T05:10:43.117Z,5.32
2018-03-08T05:13:11.319Z,5.53
2018-03-08T05:15:39.520Z,5.40
2018-03-08T05:18:07.736Z,4.60
2018-03-08T05:20:35.172Z,4.40
2018-03-08T05:23:02.600Z,5.12
2018-03-08T05:25:30.099Z,5.15
2018-03-08T05:27:57.578Z,5.60
2018-03-08T05:30:25.039Z,5.50
2018-03-08T05:32:52.485Z,5.30
2018-03-08T05:35:19.916Z,5.60
2018-03-08T05:37:47.359Z,5.90
2018-03-08T05:40:15.580Z,5.25
2018-03-08T05:42:43.008Z,3.80
2018-03-08T05:45:10.458Z,4.13
2018-03-08T05:47:37.901Z,3.95
2018-03-08T05:50:06.109Z,4.30
2018-03-08T05:52:34.335Z,4.28
2018-03-08T05:55:01.772Z,3.55
2018-03-08T05:57:29.196Z,4.37
2018-03-08T05:59:56.641Z,3.37
2018-03-08T06:02:24.841Z,3.90
2018-03-08T06:04:53.040Z,3.70
2018-03-08T06:07:21.264Z,3.92
2018-03-08T06:09:49.448Z,3.90
2018-03-08T06:12:16.875Z,3.87
2018-03-08T06:14:44.320Z,3.90
2018-03-08T06:17:11.763Z,3.87
2018-03-08T06:19:39.211Z,4.00
2018-03-08T06:22:06.644Z,3.80
2018-03-08T06:24:34.853Z,3.40
2018-03-08T06:27:03.052Z,3.25
2018-03-08T06:29:31.256Z,3.40
2018-03-08T06:31:59.448Z,3.20
2018-03-08T06:34:26.924Z,3.30
2018-03-08T06:36:55.126Z,3.40
2018-03-08T06:39:23.324Z,3.30
2018-03-08T06:41:51.531Z,3.25
2018-03-08T06:44:18.969Z,2.85
2018-03-08T06:46:46.404Z,3.50
2018-03-08T06:49:13.845Z,3.30
2018-03-08T06:51:41.297Z,3.40
2018-03-08T06:54:08.730Z,3.15
2018-03-08T06:56:36.941Z,3.70
2018-03-08T06:59:04.366Z,3.90
2018-03-08T07:01:31.848Z,3.40
2018-03-08T07:03:59.288Z,3.33
2018-03-08T07:06:26.733Z,3.50
2018-03-08T07:08:54.936Z,3.22
2018-03-08T07:11:23.146Z,3.50
2018-03-08T07:13:51.369Z,3.40
2018-03-08T07:16:18.804Z,2.80
2018-03-08T07:18:46.261Z,3.00
2018-03-08T07:21:13.700Z,3.15
2018-03-08T07:23:41.140Z,2.70
2018-03-08T07:26:08.573Z,2.70
2018-03-08T07:28:36.067Z,2.80
2018-03-08T07:31:03.459Z,2.87
2018-03-08T07:33:30.902Z,2.58
2018-03-08T07:35:59.111Z,2.60
2018-03-08T07:38:26.549Z,2.70
2018-03-08T07:40:53.995Z,2.58
2018-03-08T07:43:21.448Z,2.50
2018-03-08T07:45:48.923Z,2.40
2018-03-08T07:48:17.128Z,2.67
2018-03-08T07:50:44.573Z,2.60
2018-03-08T07:53:12.022Z,2.75
2018-03-08T07:55:39.455Z,2.17
2018-03-08T07:58:06.903Z,2.30
2018-03-08T08:00:34.345Z,2.30
2018-03-08T08:03:01.796Z,2.20
2018-03-08T08:05:41.031Z,2.50
2018-03-08T08:08:20.443Z,2.30
2018-03-08T08:10:48.648Z,2.00
2018-03-08T08:13:16.119Z,2.60
2018-03-08T08:15:44.321Z,2.10
2018-03-08T08:18:11.766Z,2.30
2018-03-08T08:20:39.198Z,2.30
2018-03-08T08:23:06.638Z,2.30
2018-03-08T08:25:34.104Z,1.90
2018-03-08T08:28:01.529Z,2.20
2018-03-08T08:30:49.159Z,2.08
2018-03-08T08:33:16.602Z,2.00
2018-03-08T08:35:44.045Z,2.20
2018-03-08T08:38:12.267Z,2.10
2018-03-08T08:40:39.711Z,2.30
2018-03-08T08:43:07.918Z,2.00
2018-03-08T08:45:36.131Z,2.00
2018-03-08T08:48:03.559Z,2.03
2018-03-08T08:50:31.573Z,2.00
2018-03-08T08:52:59.012Z,1.80
2018-03-08T08:55:26.465Z,1.85
2018-03-08T08:57:54.678Z,1.70
2018-03-08T09:00:22.892Z,2.00
2018-03-08T09:02:50.343Z,1.95
2018-03-08T09:05:17.781Z,1.80
2018-03-08T09:07:45.236Z,1.95
2018-03-08T09:10:12.662Z,2.10
2018-03-08T09:12:40.104Z,1.90
2018-03-08T09:15:07.537Z,1.75
2018-03-08T09:17:34.991Z,1.70
2018-03-08T09:22:31.417Z,1.80
2018-03-08T09:24:58.848Z,2.28
2018-03-08T09:27:26.297Z,1.80
2018-03-08T09:29:54.502Z,1.45
2018-03-08T09:32:22.717Z,1.55
2018-03-08T09:34:50.156Z,1.90
2018-03-08T09:37:17.604Z,1.50
2018-03-08T09:39:45.041Z,1.80
2018-03-08T09:42:13.246Z,1.40
2018-03-08T09:44:41.440Z,1.50
2018-03-08T09:47:09.653Z,1.58
2018-03-08T09:49:37.096Z,1.50
2018-03-08T09:52:04.532Z,1.50
2018-03-08T09:54:31.961Z,1.60
2018-03-08T09:56:59.404Z,1.50
2018-03-08T09:59:26.849Z,1.67
2018-03-08T10:01:54.284Z,1.40
2018-03-08T10:04:21.712Z,1.50
2018-03-08T10:06:49.146Z,1.85
2018-03-08T10:09:16.587Z,1.40
2018-03-08T10:11:44.031Z,1.70
2018-03-08T10:14:11.479Z,1.80
2018-03-08T10:16:38.917Z,1.70
2018-03-08T10:19:07.126Z,1.30
2018-03-08T10:21:47.475Z,1.60
2018-03-08T10:24:02.008Z,1.70
2018-03-08T10:26:29.446Z,1.60
2018-03-08T10:28:56.894Z,1.60
2018-03-08T10:31:24.342Z,1.40
2018-03-08T10:33:52.559Z,1.40
2018-03-08T10:36:20.005Z,1.90
2018-03-08T10:38:47.442Z,2.53
2018-03-08T10:41:14.926Z,1.70
2018-03-08T10:43:42.352Z,1.70
2018-03-08T10:46:10.547Z,1.60
2018-03-08T10:48:38.797Z,1.45
2018-03-08T10:51:06.965Z,1.90
2018-03-08T10:53:34.404Z,1.60
2018-03-08T10:56:01.836Z,1.63
2018-03-08T10:58:29.279Z,2.53
2018-03-08T11:00:57.490Z,1.70
2018-03-08T11:03:31.437Z,2.10
2018-03-08T11:06:14.512Z,1.50
2018-03-08T11:08:41.960Z,1.20
2018-03-08T11:11:10.165Z,1.10
2018-03-08T11:13:38.388Z,1.23
2018-03-08T11:16:05.845Z,1.23
2018-03-08T11:18:34.071Z,1.20
2018-03-08T11:21:01.512Z,1.60
2018-03-08T11:23:28.958Z,1.50
2018-03-08T11:25:56.397Z,1.20
2018-03-08T11:28:24.616Z,1.17
2018-03-08T11:30:52.059Z,1.40
2018-03-08T11:33:19.568Z,1.35
2018-03-08T11:35:47.786Z,1.33
2018-03-08T11:38:15.225Z,1.50
2018-03-08T11:40:43.443Z,1.48
2018-03-08T11:43:10.890Z,1.20
2018-03-08T11:45:38.341Z,1.50
2018-03-08T11:48:05.789Z,1.45
2018-03-08T11:50:33.240Z,1.30
2018-03-08T11:53:00.687Z,1.25
2018-03-08T11:55:28.133Z,1.30
2018-03-08T11:57:56.017Z,1.30
2018-03-08T12:00:23.449Z,1.40
2018-03-08T12:02:50.880Z,1.33
2018-03-08T12:05:18.337Z,1.20
2018-03-08T12:07:46.549Z,1.30
2018-03-08T12:10:14.772Z,1.35
2018-03-08T12:12:42.209Z,1.20
2018-03-08T12:15:09.648Z,1.20
2018-03-08T12:17:37.088Z,1.33
2018-03-08T12:20:05.309Z,1.40
2018-03-08T12:22:32.756Z,1.10
2018-03-08T12:25:00.225Z,1.20
2018-03-08T12:27:27.656Z,1.40
2018-03-08T12:29:55.104Z,1.30
2018-03-08T12:32:23.313Z,1.50
2018-03-08T12:34:51.517Z,1.50
2018-03-08T12:37:19.720Z,1.30
2018-03-08T12:39:47.167Z,1.67
2018-03-08T12:42:14.609Z,1.30
2018-03-08T12:44:42.055Z,2.10
2018-03-08T12:47:10.259Z,1.50
2018-03-08T12:49:38.468Z,1.17
2018-03-08T12:52:05.903Z,1.30
2018-03-08T12:54:33.353Z,1.60
2018-03-08T12:57:00.804Z,1.20
2018-03-08T12:59:28.288Z,1.33
2018-03-08T13:01:56.487Z,1.30
2018-03-08T13:04:23.945Z,1.50
2018-03-08T13:06:51.369Z,1.40
2018-03-08T13:09:18.815Z,1.30
2018-03-08T13:11:47.034Z,1.40
2018-03-08T13:14:15.236Z,1.52
2018-03-08T13:16:42.688Z,1.20
2018-03-08T13:19:12.568Z,1.35
2018-03-08T13:21:40.459Z,1.40
2018-03-08T13:24:15.654Z,1.30
2018-03-08T13:26:43.844Z,1.50
2018-03-08T13:29:12.052Z,1.45
2018-03-08T13:31:40.252Z,1.30
2018-03-08T21:32:47.787Z,1.70
2018-03-08T21:35:16.006Z,1.70
2018-03-08T21:37:43.444Z,1.60
2018-03-08T21:40:10.877Z,2.10
2018-03-08T21:42:38.324Z,2.00
2018-03-08T21:45:06.541Z,2.35
2018-03-08T21:47:34.758Z,1.58
2018-03-08T21:50:02.195Z,1.90
2018-03-08T21:52:29.639Z,1.92
2018-03-08T21:54:57.088Z,2.15
2018-03-08T21:57:24.527Z,1.83
2018-03-08T21:59:51.961Z,1.80
2018-03-08T22:02:19.428Z,2.28
2018-03-08T22:04:46.860Z,1.90
2018-03-08T22:07:14.301Z,6.65
2018-03-08T22:09:41.762Z,2.70
2018-03-08T22:12:09.244Z,2.42
2018-03-08T22:14:36.653Z,3.17
2018-03-08T22:17:04.108Z,2.60
2018-03-08T22:19:31.549Z,2.65
2018-03-08T22:21:58.992Z,1.75
2018-03-08T22:24:26.428Z,1.70
2018-03-08T22:26:54.627Z,1.70
2018-03-08T22:29:22.847Z,2.83
2018-03-08T22:31:50.287Z,2.30
2018-03-08T22:34:17.726Z,1.92
2018-03-08T22:36:45.167Z,1.35
2018-03-08T22:39:13.375Z,1.40
2018-03-08T22:41:41.605Z,1.50
2018-03-08T22:44:09.037Z,1.80
2018-03-08T22:46:36.475Z,1.50
2018-03-08T22:49:03.929Z,1.52
2018-03-08T22:51:31.368Z,1.90
2018-03-08T22:53:58.812Z,2.10
2018-03-08T22:56:26.278Z,3.20
2018-03-08T22:58:54.494Z,2.72
2018-03-08T23:01:29.792Z,1.60
2018-03-08T23:03:57.242Z,1.40
2018-03-08T23:06:24.681Z,1.60
2018-03-08T23:08:52.909Z,1.40
2018-03-08T23:11:20.360Z,1.58
2018-03-08T23:13:48.566Z,1.50
2018-03-08T23:16:16.772Z,1.50
2018-03-08T23:18:44.223Z,1.50
2018-03-08T23:21:11.656Z,1.62
2018-03-08T23:23:39.098Z,2.40
2018-03-08T23:26:07.297Z,2.90
2018-03-08T23:28:35.511Z,2.80
2018-03-08T23:31:02.948Z,2.20
2018-03-08T23:33:30.400Z,1.60
2018-03-08T23:35:57.832Z,1.45
2018-03-08T23:38:26.044Z,1.60
2018-03-08T23:40:53.496Z,1.50
2018-03-08T23:43:20.938Z,1.80
2018-03-08T23:45:48.379Z,1.60
2018-03-08T23:48:16.583Z,2.40
2018-03-08T23:50:44.031Z,3.50
2018-03-08T23:53:11.464Z,4.22
2018-03-08T23:55:38.921Z,3.30
2018-03-08T23:58:07.125Z,2.50
